sensor_id;sensor_type;location;lat;lon;timestamp;P1;durP1;ratioP1;P2;durP2;ratioP2
70970;SDS011;58632;51.718;19.446;2022-07-23T00:00:20;14.45;;;10.20;;
70970;SDS011;58632;51.718;19.446;2022-07-23T00:02:49;12.63;;;9.60;;
70970;SDS011;58632;51.718;19.446;2022-07-23T00:05:16;19.07;;;10.53;;
70970;SDS011;58632;51.718;19.446;2022-07-23T00:07:44;17.82;;;10.32;;
70970;SDS011;58632;51.718;19.446;2022-07-23T00:10:11;21.57;;;10.28;;
70970;SDS011;58632;51.718;19.446;2022-07-23T00:12:38;21.75;;;10.63;;
70970;SDS011;58632;51.718;19.446;2022-07-23T00:15:07;17.48;;;10.68;;
70970;SDS011;58632;51.718;19.446;2022-07-23T00:17:35;17.77;;;10.40;;
70970;SDS011;58632;51.718;19.446;2022-07-23T00:20:03;19.12;;;10.10;;
70970;SDS011;58632;51.718;19.446;2022-07-23T00:22:32;13.53;;;9.68;;
70970;SDS011;58632;51.718;19.446;2022-07-23T00:24:59;17.42;;;10.53;;
70970;SDS011;58632;51.718;19.446;2022-07-23T00:27:27;15.95;;;9.95;;
70970;SDS011;58632;51.718;19.446;2022-07-23T00:29:54;16.87;;;10.58;;
70970;SDS011;58632;51.718;19.446;2022-07-23T00:32:21;15.08;;;10.53;;
70970;SDS011;58632;51.718;19.446;2022-07-23T00:34:48;19.50;;;10.90;;
70970;SDS011;58632;51.718;19.446;2022-07-23T00:37:15;18.92;;;10.68;;
70970;SDS011;58632;51.718;19.446;2022-07-23T00:39:42;21.33;;;10.63;;
70970;SDS011;58632;51.718;19.446;2022-07-23T00:42:09;16.20;;;9.83;;
70970;SDS011;58632;51.718;19.446;2022-07-23T00:44:36;17.32;;;10.40;;
70970;SDS011;58632;51.718;19.446;2022-07-23T00:47:03;17.40;;;11.40;;
70970;SDS011;58632;51.718;19.446;2022-07-23T00:49:32;22.52;;;11.90;;
70970;SDS011;58632;51.718;19.446;2022-07-23T00:52:00;22.15;;;11.35;;
70970;SDS011;58632;51.718;19.446;2022-07-23T00:54:29;26.60;;;11.35;;
70970;SDS011;58632;51.718;19.446;2022-07-23T00:56:57;29.15;;;12.03;;
70970;SDS011;58632;51.718;19.446;2022-07-23T00:59:24;24.18;;;11.60;;
70970;SDS011;58632;51.718;19.446;2022-07-23T01:01:51;15.90;;;10.58;;
70970;SDS011;58632;51.718;19.446;2022-07-23T01:04:18;17.23;;;10.90;;
70970;SDS011;58632;51.718;19.446;2022-07-23T01:06:45;25.62;;;10.90;;
70970;SDS011;58632;51.718;19.446;2022-07-23T01:09:13;19.50;;;11.35;;
70970;SDS011;58632;51.718;19.446;2022-07-23T01:11:41;19.42;;;11.03;;
70970;SDS011;58632;51.718;19.446;2022-07-23T01:14:10;16.73;;;10.90;;
70970;SDS011;58632;51.718;19.446;2022-07-23T01:16:43;17.00;;;11.05;;
70970;SDS011;58632;51.718;19.446;2022-07-23T01:19:12;13.18;;;10.65;;
70970;SDS011;58632;51.718;19.446;2022-07-23T01:21:41;16.15;;;10.72;;
70970;SDS011;58632;51.718;19.446;2022-07-23T01:24:12;19.30;;;11.35;;
70970;SDS011;58632;51.718;19.446;2022-07-23T01:26:42;16.37;;;11.30;;
70970;SDS011;58632;51.718;19.446;2022-07-23T01:29:11;16.15;;;11.80;;
70970;SDS011;58632;51.718;19.446;2022-07-23T01:31:40;13.78;;;11.00;;
70970;SDS011;58632;51.718;19.446;2022-07-23T01:34:09;13.83;;;10.63;;
70970;SDS011;58632;51.718;19.446;2022-07-23T01:36:37;16.12;;;10.78;;
70970;SDS011;58632;51.718;19.446;2022-07-23T01:39:05;14.15;;;10.48;;
70970;SDS011;58632;51.718;19.446;2022-07-23T01:41:34;13.25;;;10.65;;
70970;SDS011;58632;51.718;19.446;2022-07-23T01:44:02;16.85;;;10.90;;
70970;SDS011;58632;51.718;19.446;2022-07-23T01:46:29;14.05;;;10.50;;
70970;SDS011;58632;51.718;19.446;2022-07-23T01:48:57;17.17;;;10.98;;
70970;SDS011;58632;51.718;19.446;2022-07-23T01:51:24;16.48;;;11.45;;
70970;SDS011;58632;51.718;19.446;2022-07-23T01:53:51;15.03;;;10.80;;
70970;SDS011;58632;51.718;19.446;2022-07-23T01:56:18;15.78;;;10.63;;
70970;SDS011;58632;51.718;19.446;2022-07-23T01:58:51;14.73;;;11.00;;
70970;SDS011;58632;51.718;19.446;2022-07-23T02:01:17;14.35;;;11.00;;
70970;SDS011;58632;51.718;19.446;2022-07-23T02:03:44;15.15;;;10.88;;
70970;SDS011;58632;51.718;19.446;2022-07-23T02:06:12;11.70;;;10.23;;
70970;SDS011;58632;51.718;19.446;2022-07-23T02:08:39;12.35;;;11.05;;
70970;SDS011;58632;51.718;19.446;2022-07-23T02:11:06;14.05;;;10.68;;
70970;SDS011;58632;51.718;19.446;2022-07-23T02:13:34;19.07;;;10.90;;
70970;SDS011;58632;51.718;19.446;2022-07-23T02:16:01;13.32;;;10.53;;
70970;SDS011;58632;51.718;19.446;2022-07-23T02:18:28;13.50;;;10.10;;
70970;SDS011;58632;51.718;19.446;2022-07-23T02:20:55;13.43;;;10.72;;
70970;SDS011;58632;51.718;19.446;2022-07-23T02:23:22;12.98;;;10.38;;
70970;SDS011;58632;51.718;19.446;2022-07-23T02:25:49;13.38;;;11.18;;
70970;SDS011;58632;51.718;19.446;2022-07-23T02:28:17;14.93;;;11.05;;
70970;SDS011;58632;51.718;19.446;2022-07-23T02:30:44;16.65;;;11.25;;
70970;SDS011;58632;51.718;19.446;2022-07-23T02:33:11;16.05;;;10.78;;
70970;SDS011;58632;51.718;19.446;2022-07-23T02:35:39;18.40;;;11.38;;
70970;SDS011;58632;51.718;19.446;2022-07-23T02:38:05;17.77;;;11.22;;
70970;SDS011;58632;51.718;19.446;2022-07-23T02:40:32;14.75;;;10.63;;
70970;SDS011;58632;51.718;19.446;2022-07-23T02:43:00;12.63;;;11.08;;
70970;SDS011;58632;51.718;19.446;2022-07-23T02:45:27;13.32;;;10.32;;
70970;SDS011;58632;51.718;19.446;2022-07-23T02:47:54;13.65;;;11.80;;
70970;SDS011;58632;51.718;19.446;2022-07-23T02:50:21;14.80;;;11.50;;
70970;SDS011;58632;51.718;19.446;2022-07-23T02:52:48;12.10;;;10.65;;
70970;SDS011;58632;51.718;19.446;2022-07-23T02:55:17;13.38;;;11.15;;
70970;SDS011;58632;51.718;19.446;2022-07-23T02:57:44;18.23;;;11.28;;
70970;SDS011;58632;51.718;19.446;2022-07-23T03:00:11;14.47;;;10.32;;
70970;SDS011;58632;51.718;19.446;2022-07-23T03:02:40;15.90;;;11.75;;
70970;SDS011;58632;51.718;19.446;2022-07-23T03:05:07;13.10;;;11.15;;
70970;SDS011;58632;51.718;19.446;2022-07-23T03:07:35;17.62;;;11.25;;
70970;SDS011;58632;51.718;19.446;2022-07-23T03:10:03;16.07;;;10.98;;
70970;SDS011;58632;51.718;19.446;2022-07-23T03:12:31;14.33;;;11.50;;
70970;SDS011;58632;51.718;19.446;2022-07-23T03:14:58;12.33;;;11.10;;
70970;SDS011;58632;51.718;19.446;2022-07-23T03:17:25;15.48;;;11.40;;
70970;SDS011;58632;51.718;19.446;2022-07-23T03:19:52;14.03;;;10.72;;
70970;SDS011;58632;51.718;19.446;2022-07-23T03:22:19;12.50;;;10.30;;
70970;SDS011;58632;51.718;19.446;2022-07-23T03:24:46;15.25;;;10.93;;
70970;SDS011;58632;51.718;19.446;2022-07-23T03:27:22;12.93;;;10.93;;
70970;SDS011;58632;51.718;19.446;2022-07-23T03:29:53;15.00;;;10.95;;
70970;SDS011;58632;51.718;19.446;2022-07-23T03:32:22;14.73;;;11.05;;
70970;SDS011;58632;51.718;19.446;2022-07-23T03:34:51;14.07;;;10.88;;
70970;SDS011;58632;51.718;19.446;2022-07-23T03:37:19;13.32;;;11.05;;
70970;SDS011;58632;51.718;19.446;2022-07-23T03:39:46;13.62;;;11.00;;
70970;SDS011;58632;51.718;19.446;2022-07-23T03:42:13;12.75;;;10.75;;
70970;SDS011;58632;51.718;19.446;2022-07-23T03:44:40;14.38;;;11.50;;
70970;SDS011;58632;51.718;19.446;2022-07-23T03:47:08;13.22;;;11.30;;
70970;SDS011;58632;51.718;19.446;2022-07-23T03:49:35;13.93;;;11.15;;
70970;SDS011;58632;51.718;19.446;2022-07-23T03:52:02;13.80;;;11.38;;
70970;SDS011;58632;51.718;19.446;2022-07-23T03:54:30;14.07;;;11.93;;
70970;SDS011;58632;51.718;19.446;2022-07-23T03:56:57;17.60;;;11.38;;
70970;SDS011;58632;51.718;19.446;2022-07-23T03:59:24;14.00;;;10.82;;
70970;SDS011;58632;51.718;19.446;2022-07-23T04:01:51;17.85;;;11.63;;
70970;SDS011;58632;51.718;19.446;2022-07-23T04:04:19;14.55;;;11.60;;
70970;SDS011;58632;51.718;19.446;2022-07-23T04:06:46;14.95;;;11.78;;
70970;SDS011;58632;51.718;19.446;2022-07-23T04:09:13;13.68;;;11.08;;
70970;SDS011;58632;51.718;19.446;2022-07-23T04:11:40;15.60;;;11.60;;
70970;SDS011;58632;51.718;19.446;2022-07-23T04:14:07;16.25;;;11.90;;
70970;SDS011;58632;51.718;19.446;2022-07-23T04:16:35;16.02;;;11.30;;
70970;SDS011;58632;51.718;19.446;2022-07-23T04:19:02;16.50;;;11.45;;
70970;SDS011;58632;51.718;19.446;2022-07-23T04:21:30;12.03;;;10.80;;
70970;SDS011;58632;51.718;19.446;2022-07-23T04:23:58;14.95;;;11.50;;
70970;SDS011;58632;51.718;19.446;2022-07-23T04:26:25;14.70;;;11.20;;
70970;SDS011;58632;51.718;19.446;2022-07-23T04:28:52;14.23;;;11.03;;
70970;SDS011;58632;51.718;19.446;2022-07-23T04:31:20;14.00;;;11.08;;
70970;SDS011;58632;51.718;19.446;2022-07-23T04:33:47;14.55;;;10.35;;
70970;SDS011;58632;51.718;19.446;2022-07-23T04:36:14;16.32;;;10.78;;
70970;SDS011;58632;51.718;19.446;2022-07-23T04:38:41;13.10;;;10.20;;
70970;SDS011;58632;51.718;19.446;2022-07-23T04:41:08;15.63;;;10.40;;
70970;SDS011;58632;51.718;19.446;2022-07-23T04:43:35;15.35;;;9.83;;
70970;SDS011;58632;51.718;19.446;2022-07-23T04:46:02;11.90;;;10.03;;
70970;SDS011;58632;51.718;19.446;2022-07-23T04:48:30;12.13;;;10.05;;
70970;SDS011;58632;51.718;19.446;2022-07-23T04:50:57;10.15;;;8.70;;
70970;SDS011;58632;51.718;19.446;2022-07-23T04:53:24;12.25;;;8.93;;
70970;SDS011;58632;51.718;19.446;2022-07-23T04:55:51;11.65;;;9.00;;
70970;SDS011;58632;51.718;19.446;2022-07-23T04:58:19;10.65;;;9.28;;
70970;SDS011;58632;51.718;19.446;2022-07-23T05:00:46;10.80;;;9.55;;
70970;SDS011;58632;51.718;19.446;2022-07-23T05:03:14;10.65;;;9.05;;
70970;SDS011;58632;51.718;19.446;2022-07-23T05:05:42;12.00;;;9.25;;
70970;SDS011;58632;51.718;19.446;2022-07-23T05:08:09;10.43;;;8.38;;
70970;SDS011;58632;51.718;19.446;2022-07-23T05:10:36;11.12;;;9.10;;
70970;SDS011;58632;51.718;19.446;2022-07-23T05:13:04;12.25;;;9.38;;
70970;SDS011;58632;51.718;19.446;2022-07-23T05:15:31;15.28;;;9.73;;
70970;SDS011;58632;51.718;19.446;2022-07-23T05:17:58;10.78;;;9.08;;
70970;SDS011;58632;51.718;19.446;2022-07-23T05:20:25;11.60;;;8.80;;
70970;SDS011;58632;51.718;19.446;2022-07-23T05:22:53;10.23;;;8.23;;
70970;SDS011;58632;51.718;19.446;2022-07-23T05:25:20;9.90;;;8.30;;
70970;SDS011;58632;51.718;19.446;2022-07-23T05:27:47;12.10;;;8.40;;
70970;SDS011;58632;51.718;19.446;2022-07-23T05:30:14;13.25;;;8.55;;
70970;SDS011;58632;51.718;19.446;2022-07-23T05:32:42;11.45;;;8.58;;
70970;SDS011;58632;51.718;19.446;2022-07-23T05:35:09;11.50;;;7.90;;
70970;SDS011;58632;51.718;19.446;2022-07-23T05:37:37;17.20;;;13.45;;
70970;SDS011;58632;51.718;19.446;2022-07-23T05:40:06;13.25;;;10.08;;
70970;SDS011;58632;51.718;19.446;2022-07-23T05:42:40;12.03;;;7.90;;
70970;SDS011;58632;51.718;19.446;2022-07-23T05:45:06;9.80;;;7.80;;
70970;SDS011;58632;51.718;19.446;2022-07-23T05:47:43;10.18;;;7.50;;
70970;SDS011;58632;51.718;19.446;2022-07-23T05:50:13;9.33;;;7.00;;
70970;SDS011;58632;51.718;19.446;2022-07-23T05:52:42;10.95;;;7.67;;
70970;SDS011;58632;51.718;19.446;2022-07-23T05:55:10;10.18;;;6.83;;
70970;SDS011;58632;51.718;19.446;2022-07-23T05:57:39;8.53;;;6.90;;
70970;SDS011;58632;51.718;19.446;2022-07-23T06:00:08;9.03;;;6.53;;
70970;SDS011;58632;51.718;19.446;2022-07-23T06:02:37;10.13;;;6.80;;
70970;SDS011;58632;51.718;19.446;2022-07-23T06:05:06;9.73;;;6.45;;
70970;SDS011;58632;51.718;19.446;2022-07-23T06:07:35;6.65;;;6.03;;
70970;SDS011;58632;51.718;19.446;2022-07-23T06:10:03;7.67;;;6.00;;
70970;SDS011;58632;51.718;19.446;2022-07-23T06:12:31;8.38;;;5.15;;
70970;SDS011;58632;51.718;19.446;2022-07-23T06:14:59;10.08;;;5.80;;
70970;SDS011;58632;51.718;19.446;2022-07-23T06:17:26;6.90;;;5.85;;
70970;SDS011;58632;51.718;19.446;2022-07-23T06:19:55;6.92;;;6.03;;
70970;SDS011;58632;51.718;19.446;2022-07-23T06:22:23;7.35;;;5.72;;
70970;SDS011;58632;51.718;19.446;2022-07-23T06:24:50;8.50;;;6.03;;
70970;SDS011;58632;51.718;19.446;2022-07-23T06:27:18;10.23;;;5.85;;
70970;SDS011;58632;51.718;19.446;2022-07-23T06:29:45;7.58;;;5.35;;
70970;SDS011;58632;51.718;19.446;2022-07-23T06:32:13;8.80;;;5.60;;
70970;SDS011;58632;51.718;19.446;2022-07-23T06:34:40;9.55;;;5.75;;
70970;SDS011;58632;51.718;19.446;2022-07-23T06:37:07;7.80;;;5.17;;
70970;SDS011;58632;51.718;19.446;2022-07-23T06:39:34;9.43;;;5.95;;
70970;SDS011;58632;51.718;19.446;2022-07-23T06:42:02;7.08;;;5.90;;
70970;SDS011;58632;51.718;19.446;2022-07-23T06:44:29;6.50;;;5.37;;
70970;SDS011;58632;51.718;19.446;2022-07-23T06:46:57;7.60;;;5.92;;
70970;SDS011;58632;51.718;19.446;2022-07-23T06:49:24;7.05;;;5.90;;
70970;SDS011;58632;51.718;19.446;2022-07-23T06:51:51;8.85;;;5.62;;
70970;SDS011;58632;51.718;19.446;2022-07-23T06:54:18;6.72;;;5.97;;
70970;SDS011;58632;51.718;19.446;2022-07-23T06:56:45;6.95;;;6.03;;
70970;SDS011;58632;51.718;19.446;2022-07-23T06:59:12;9.80;;;6.28;;
70970;SDS011;58632;51.718;19.446;2022-07-23T07:01:39;8.53;;;6.60;;
70970;SDS011;58632;51.718;19.446;2022-07-23T07:04:06;7.62;;;6.20;;
70970;SDS011;58632;51.718;19.446;2022-07-23T07:06:33;9.45;;;6.33;;
70970;SDS011;58632;51.718;19.446;2022-07-23T07:09:01;8.93;;;6.30;;
70970;SDS011;58632;51.718;19.446;2022-07-23T07:11:29;13.03;;;6.47;;
70970;SDS011;58632;51.718;19.446;2022-07-23T07:13:56;7.25;;;6.37;;
70970;SDS011;58632;51.718;19.446;2022-07-23T07:16:23;9.50;;;5.78;;
70970;SDS011;58632;51.718;19.446;2022-07-23T07:18:50;7.75;;;5.90;;
70970;SDS011;58632;51.718;19.446;2022-07-23T07:21:17;9.73;;;5.90;;
70970;SDS011;58632;51.718;19.446;2022-07-23T07:23:44;9.83;;;5.80;;
70970;SDS011;58632;51.718;19.446;2022-07-23T07:26:11;10.48;;;5.85;;
70970;SDS011;58632;51.718;19.446;2022-07-23T07:28:38;7.62;;;5.75;;
70970;SDS011;58632;51.718;19.446;2022-07-23T07:31:06;6.70;;;6.08;;
70970;SDS011;58632;51.718;19.446;2022-07-23T07:33:33;8.90;;;6.45;;
70970;SDS011;58632;51.718;19.446;2022-07-23T07:36:00;9.40;;;5.95;;
70970;SDS011;58632;51.718;19.446;2022-07-23T07:38:28;8.18;;;6.12;;
70970;SDS011;58632;51.718;19.446;2022-07-23T07:40:55;6.85;;;5.62;;
70970;SDS011;58632;51.718;19.446;2022-07-23T07:43:23;7.53;;;5.70;;
70970;SDS011;58632;51.718;19.446;2022-07-23T07:45:50;8.50;;;5.90;;
70970;SDS011;58632;51.718;19.446;2022-07-23T07:48:17;6.30;;;5.12;;
70970;SDS011;58632;51.718;19.446;2022-07-23T07:50:44;7.87;;;6.00;;
70970;SDS011;58632;51.718;19.446;2022-07-23T07:53:11;9.18;;;6.10;;
70970;SDS011;58632;51.718;19.446;2022-07-23T07:55:38;14.78;;;6.42;;
70970;SDS011;58632;51.718;19.446;2022-07-23T07:58:05;7.15;;;5.58;;
70970;SDS011;58632;51.718;19.446;2022-07-23T08:00:32;7.47;;;6.25;;
70970;SDS011;58632;51.718;19.446;2022-07-23T08:03:00;11.45;;;5.35;;
70970;SDS011;58632;51.718;19.446;2022-07-23T08:05:28;10.53;;;5.95;;
70970;SDS011;58632;51.718;19.446;2022-07-23T08:07:57;9.78;;;6.40;;
70970;SDS011;58632;51.718;19.446;2022-07-23T08:10:26;7.87;;;5.78;;
70970;SDS011;58632;51.718;19.446;2022-07-23T08:12:55;9.15;;;5.67;;
70970;SDS011;58632;51.718;19.446;2022-07-23T08:15:23;8.08;;;5.50;;
70970;SDS011;58632;51.718;19.446;2022-07-23T08:17:54;11.93;;;5.65;;
70970;SDS011;58632;51.718;19.446;2022-07-23T08:20:23;6.50;;;5.40;;
70970;SDS011;58632;51.718;19.446;2022-07-23T08:25:25;6.40;;;5.10;;
70970;SDS011;58632;51.718;19.446;2022-07-23T08:27:59;7.15;;;5.53;;
70970;SDS011;58632;51.718;19.446;2022-07-23T08:30:29;6.12;;;5.22;;
70970;SDS011;58632;51.718;19.446;2022-07-23T08:33:02;6.17;;;5.58;;
70970;SDS011;58632;51.718;19.446;2022-07-23T08:35:37;6.62;;;5.97;;
70970;SDS011;58632;51.718;19.446;2022-07-23T08:38:09;7.97;;;5.95;;
70970;SDS011;58632;51.718;19.446;2022-07-23T08:40:38;7.37;;;5.60;;
70970;SDS011;58632;51.718;19.446;2022-07-23T08:43:09;7.80;;;5.60;;
70970;SDS011;58632;51.718;19.446;2022-07-23T08:45:43;8.30;;;5.58;;
70970;SDS011;58632;51.718;19.446;2022-07-23T08:48:14;7.45;;;4.97;;
70970;SDS011;58632;51.718;19.446;2022-07-23T08:50:49;8.33;;;5.70;;
70970;SDS011;58632;51.718;19.446;2022-07-23T08:53:22;7.30;;;5.10;;
70970;SDS011;58632;51.718;19.446;2022-07-23T08:55:53;6.42;;;5.72;;
70970;SDS011;58632;51.718;19.446;2022-07-23T08:58:24;8.20;;;5.40;;
70970;SDS011;58632;51.718;19.446;2022-07-23T09:00:52;8.20;;;5.90;;
70970;SDS011;58632;51.718;19.446;2022-07-23T09:03:20;11.03;;;6.00;;
70970;SDS011;58632;51.718;19.446;2022-07-23T09:05:52;8.68;;;5.92;;
70970;SDS011;58632;51.718;19.446;2022-07-23T09:08:25;8.33;;;5.55;;
70970;SDS011;58632;51.718;19.446;2022-07-23T09:11:08;7.83;;;5.03;;
70970;SDS011;58632;51.718;19.446;2022-07-23T09:13:42;7.17;;;5.50;;
70970;SDS011;58632;51.718;19.446;2022-07-23T09:16:20;8.95;;;5.28;;
70970;SDS011;58632;51.718;19.446;2022-07-23T09:18:57;8.05;;;5.65;;
70970;SDS011;58632;51.718;19.446;2022-07-23T09:21:27;7.40;;;5.70;;
70970;SDS011;58632;51.718;19.446;2022-07-23T09:24:10;6.97;;;6.27;;
70970;SDS011;58632;51.718;19.446;2022-07-23T09:29:17;7.60;;;6.08;;
70970;SDS011;58632;51.718;19.446;2022-07-23T09:34:32;7.10;;;6.00;;
70970;SDS011;58632;51.718;19.446;2022-07-23T09:37:13;7.00;;;6.25;;
70970;SDS011;58632;51.718;19.446;2022-07-23T09:39:44;8.18;;;6.22;;
70970;SDS011;58632;51.718;19.446;2022-07-23T09:42:20;6.90;;;5.90;;
70970;SDS011;58632;51.718;19.446;2022-07-23T09:44:50;8.85;;;6.25;;
70970;SDS011;58632;51.718;19.446;2022-07-23T09:47:21;9.93;;;6.42;;
70970;SDS011;58632;51.718;19.446;2022-07-23T09:52:45;9.90;;;6.65;;
70970;SDS011;58632;51.718;19.446;2022-07-23T09:55:15;6.08;;;5.47;;
70970;SDS011;58632;51.718;19.446;2022-07-23T09:57:45;8.85;;;5.72;;
70970;SDS011;58632;51.718;19.446;2022-07-23T10:00:18;8.25;;;6.05;;
70970;SDS011;58632;51.718;19.446;2022-07-23T10:02:46;13.83;;;6.30;;
70970;SDS011;58632;51.718;19.446;2022-07-23T10:05:14;9.15;;;5.97;;
70970;SDS011;58632;51.718;19.446;2022-07-23T10:07:42;7.25;;;6.53;;
70970;SDS011;58632;51.718;19.446;2022-07-23T10:10:11;9.03;;;6.33;;
70970;SDS011;58632;51.718;19.446;2022-07-23T10:12:42;7.80;;;5.83;;
70970;SDS011;58632;51.718;19.446;2022-07-23T10:15:31;6.50;;;5.47;;
70970;SDS011;58632;51.718;19.446;2022-07-23T10:17:59;7.97;;;6.10;;
70970;SDS011;58632;51.718;19.446;2022-07-23T10:20:26;9.70;;;5.90;;
70970;SDS011;58632;51.718;19.446;2022-07-23T10:23:03;8.60;;;5.60;;
70970;SDS011;58632;51.718;19.446;2022-07-23T10:37:01;10.33;;;5.43;;
70970;SDS011;58632;51.718;19.446;2022-07-23T10:39:35;7.75;;;5.97;;
70970;SDS011;58632;51.718;19.446;2022-07-23T10:42:16;9.73;;;6.03;;
70970;SDS011;58632;51.718;19.446;2022-07-23T10:44:48;7.42;;;6.03;;
70970;SDS011;58632;51.718;19.446;2022-07-23T10:47:35;9.00;;;6.37;;
70970;SDS011;58632;51.718;19.446;2022-07-23T10:50:27;8.83;;;6.20;;
70970;SDS011;58632;51.718;19.446;2022-07-23T10:55:49;11.15;;;6.17;;
70970;SDS011;58632;51.718;19.446;2022-07-23T10:58:20;7.87;;;5.97;;
70970;SDS011;58632;51.718;19.446;2022-07-23T11:00:50;7.50;;;6.37;;
70970;SDS011;58632;51.718;19.446;2022-07-23T11:03:30;9.15;;;6.20;;
70970;SDS011;58632;51.718;19.446;2022-07-23T11:06:04;8.10;;;5.90;;
70970;SDS011;58632;51.718;19.446;2022-07-23T11:08:32;9.18;;;6.08;;
70970;SDS011;58632;51.718;19.446;2022-07-23T11:16:20;9.25;;;6.10;;
70970;SDS011;58632;51.718;19.446;2022-07-23T11:18:53;7.33;;;5.67;;
70970;SDS011;58632;51.718;19.446;2022-07-23T11:24:10;8.65;;;6.00;;
70970;SDS011;58632;51.718;19.446;2022-07-23T11:34:53;27.55;;;7.62;;
70970;SDS011;58632;51.718;19.446;2022-07-23T11:40:04;8.20;;;5.95;;
70970;SDS011;58632;51.718;19.446;2022-07-23T11:42:51;6.35;;;5.70;;
70970;SDS011;58632;51.718;19.446;2022-07-23T11:45:22;7.60;;;5.85;;
70970;SDS011;58632;51.718;19.446;2022-07-23T11:47:53;7.85;;;5.78;;
70970;SDS011;58632;51.718;19.446;2022-07-23T11:50:22;7.03;;;5.72;;
70970;SDS011;58632;51.718;19.446;2022-07-23T11:52:52;9.85;;;5.85;;
70970;SDS011;58632;51.718;19.446;2022-07-23T11:55:21;6.65;;;5.97;;
70970;SDS011;58632;51.718;19.446;2022-07-23T11:57:50;9.00;;;5.83;;
70970;SDS011;58632;51.718;19.446;2022-07-23T12:00:20;5.90;;;5.30;;
70970;SDS011;58632;51.718;19.446;2022-07-23T12:02:52;9.13;;;6.12;;
70970;SDS011;58632;51.718;19.446;2022-07-23T12:05:26;7.95;;;5.25;;
70970;SDS011;58632;51.718;19.446;2022-07-23T12:07:57;16.82;;;6.85;;
70970;SDS011;58632;51.718;19.446;2022-07-23T12:10:30;8.25;;;6.20;;
70970;SDS011;58632;51.718;19.446;2022-07-23T12:13:08;8.68;;;6.70;;
70970;SDS011;58632;51.718;19.446;2022-07-23T12:15:40;8.63;;;6.55;;
70970;SDS011;58632;51.718;19.446;2022-07-23T12:18:11;8.40;;;6.47;;
70970;SDS011;58632;51.718;19.446;2022-07-23T12:20:43;9.35;;;6.47;;
70970;SDS011;58632;51.718;19.446;2022-07-23T12:23:15;8.50;;;6.70;;
70970;SDS011;58632;51.718;19.446;2022-07-23T12:25:45;10.13;;;6.20;;
70970;SDS011;58632;51.718;19.446;2022-07-23T12:28:15;8.80;;;6.30;;
70970;SDS011;58632;51.718;19.446;2022-07-23T12:30:55;6.97;;;5.87;;
70970;SDS011;58632;51.718;19.446;2022-07-23T12:35:57;11.10;;;6.15;;
70970;SDS011;58632;51.718;19.446;2022-07-23T12:38:27;7.80;;;6.22;;
70970;SDS011;58632;51.718;19.446;2022-07-23T12:40:58;17.62;;;6.58;;
70970;SDS011;58632;51.718;19.446;2022-07-23T12:43:30;18.65;;;7.42;;
70970;SDS011;58632;51.718;19.446;2022-07-23T12:46:04;14.77;;;6.70;;
70970;SDS011;58632;51.718;19.446;2022-07-23T12:48:39;19.15;;;7.22;;
70970;SDS011;58632;51.718;19.446;2022-07-23T12:51:06;13.28;;;7.53;;
70970;SDS011;58632;51.718;19.446;2022-07-23T12:53:47;14.43;;;7.08;;
70970;SDS011;58632;51.718;19.446;2022-07-23T12:56:21;33.70;;;6.83;;
70970;SDS011;58632;51.718;19.446;2022-07-23T13:01:40;13.20;;;4.47;;
70970;SDS011;58632;51.718;19.446;2022-07-23T13:04:15;18.87;;;5.17;;
70970;SDS011;58632;51.718;19.446;2022-07-23T13:06:52;12.78;;;4.33;;
70970;SDS011;58632;51.718;19.446;2022-07-23T13:09:28;10.18;;;4.30;;
70970;SDS011;58632;51.718;19.446;2022-07-23T13:11:58;9.40;;;4.20;;
70970;SDS011;58632;51.718;19.446;2022-07-23T13:14:26;12.30;;;4.28;;
70970;SDS011;58632;51.718;19.446;2022-07-23T13:16:54;10.95;;;4.50;;
70970;SDS011;58632;51.718;19.446;2022-07-23T13:19:22;8.63;;;4.40;;
70970;SDS011;58632;51.718;19.446;2022-07-23T13:21:49;8.13;;;4.25;;
70970;SDS011;58632;51.718;19.446;2022-07-23T13:24:17;5.58;;;4.08;;
70970;SDS011;58632;51.718;19.446;2022-07-23T13:26:44;8.18;;;4.00;;
70970;SDS011;58632;51.718;19.446;2022-07-23T13:29:13;6.65;;;4.58;;
70970;SDS011;58632;51.718;19.446;2022-07-23T13:31:40;6.97;;;4.75;;
70970;SDS011;58632;51.718;19.446;2022-07-23T13:34:07;6.47;;;4.95;;
70970;SDS011;58632;51.718;19.446;2022-07-23T13:36:35;7.50;;;4.45;;
70970;SDS011;58632;51.718;19.446;2022-07-23T13:39:03;6.58;;;4.45;;
70970;SDS011;58632;51.718;19.446;2022-07-23T13:41:31;8.38;;;4.83;;
70970;SDS011;58632;51.718;19.446;2022-07-23T13:43:59;6.90;;;4.33;;
70970;SDS011;58632;51.718;19.446;2022-07-23T13:46:26;6.47;;;4.35;;
70970;SDS011;58632;51.718;19.446;2022-07-23T13:48:53;8.98;;;4.58;;
70970;SDS011;58632;51.718;19.446;2022-07-23T13:51:20;9.58;;;5.45;;
70970;SDS011;58632;51.718;19.446;2022-07-23T13:53:48;6.85;;;5.25;;
70970;SDS011;58632;51.718;19.446;2022-07-23T13:56:15;9.50;;;5.35;;
70970;SDS011;58632;51.718;19.446;2022-07-23T13:58:42;8.78;;;5.03;;
70970;SDS011;58632;51.718;19.446;2022-07-23T14:01:10;5.87;;;4.75;;
70970;SDS011;58632;51.718;19.446;2022-07-23T14:03:38;8.95;;;6.03;;
70970;SDS011;58632;51.718;19.446;2022-07-23T14:06:05;7.37;;;4.97;;
70970;SDS011;58632;51.718;19.446;2022-07-23T14:08:33;8.75;;;5.25;;
70970;SDS011;58632;51.718;19.446;2022-07-23T14:11:00;9.35;;;5.05;;
70970;SDS011;58632;51.718;19.446;2022-07-23T14:13:28;6.60;;;4.95;;
70970;SDS011;58632;51.718;19.446;2022-07-23T14:15:55;7.22;;;5.08;;
70970;SDS011;58632;51.718;19.446;2022-07-23T14:18:22;8.25;;;4.95;;
70970;SDS011;58632;51.718;19.446;2022-07-23T14:20:49;6.72;;;4.90;;
70970;SDS011;58632;51.718;19.446;2022-07-23T14:23:17;9.13;;;5.55;;
70970;SDS011;58632;51.718;19.446;2022-07-23T14:25:44;8.73;;;4.97;;
70970;SDS011;58632;51.718;19.446;2022-07-23T14:28:12;6.78;;;4.92;;
70970;SDS011;58632;51.718;19.446;2022-07-23T14:30:39;9.50;;;5.50;;
70970;SDS011;58632;51.718;19.446;2022-07-23T14:33:06;7.05;;;5.30;;
70970;SDS011;58632;51.718;19.446;2022-07-23T14:35:33;6.37;;;5.22;;
70970;SDS011;58632;51.718;19.446;2022-07-23T14:38:01;6.90;;;4.75;;
70970;SDS011;58632;51.718;19.446;2022-07-23T14:40:29;6.62;;;5.25;;
70970;SDS011;58632;51.718;19.446;2022-07-23T14:42:56;6.10;;;5.05;;
70970;SDS011;58632;51.718;19.446;2022-07-23T14:45:24;6.47;;;5.12;;
70970;SDS011;58632;51.718;19.446;2022-07-23T14:47:51;8.25;;;5.22;;
70970;SDS011;58632;51.718;19.446;2022-07-23T14:50:18;8.25;;;5.60;;
70970;SDS011;58632;51.718;19.446;2022-07-23T14:52:46;7.10;;;5.65;;
70970;SDS011;58632;51.718;19.446;2022-07-23T14:55:13;6.50;;;5.10;;
70970;SDS011;58632;51.718;19.446;2022-07-23T14:57:40;7.25;;;4.87;;
70970;SDS011;58632;51.718;19.446;2022-07-23T15:00:08;7.33;;;5.60;;
70970;SDS011;58632;51.718;19.446;2022-07-23T15:02:36;6.58;;;5.05;;
70970;SDS011;58632;51.718;19.446;2022-07-23T15:05:04;6.83;;;4.70;;
70970;SDS011;58632;51.718;19.446;2022-07-23T15:07:32;8.43;;;4.78;;
70970;SDS011;58632;51.718;19.446;2022-07-23T15:10:00;5.92;;;4.80;;
70970;SDS011;58632;51.718;19.446;2022-07-23T15:12:27;9.00;;;5.20;;
70970;SDS011;58632;51.718;19.446;2022-07-23T15:14:54;8.70;;;4.92;;
70970;SDS011;58632;51.718;19.446;2022-07-23T15:17:22;6.05;;;4.55;;
70970;SDS011;58632;51.718;19.446;2022-07-23T15:19:49;6.53;;;5.30;;
70970;SDS011;58632;51.718;19.446;2022-07-23T15:22:17;5.67;;;4.55;;